Norway, Kansas
Current Conditions -  °F | °C
As of 2:55 AM on Monday 24 Nov 2014 (Local Time) from KCNK Reporting Station
Overcast Overcast  
Wind Chill: 29°   Ceiling: 6000
Heat Index: 37°   Visibility: 10mi
Dew Point: 25°   Wind: 13mph
Humidity: 62%   Direction: 290°WNW
Pressure: 29.66"   Gusts: NA
Location:  39.7°N, 97.77°W
Report Text: KCNK 240855Z AUTO 29011KT 10SM OVC060 03/M04 A2966 RMK AO2 SLP049 T00281039 53008
Loading
Personal Weather Stations






























Interactive Weather Map New forecast layout! Learn more

10-Day Weather Forecast

Advertisements
Track Severe Weather on mobile